Tramore, Ireland
Current Conditions -  °F | °C
As of 10:00 AM on Wednesday 26 Nov 2014 (Local Time) from EIWF Reporting Station
Clear Clear  
Wind Chill: 28°   Ceiling: Unl
Heat Index: 34°   Visibility: 6mi
Dew Point: 34°   Wind: 7mph
Humidity: 100%   Direction: 360°N
Pressure: 29.94"   Gusts: NA
Location:  52.16°N, 7.16°W
Report Text: EIWF 261000Z 36006KT CAVOK 01/01 Q1014
Loading
Personal Weather Stations






























Interactive Weather Map New forecast layout! Learn more

10-Day Weather Forecast

Advertisements
Track Severe Weather on mobile